Terminal Aerodrome Forecast
Issued by NWS Indianapolis, IN

Home | Current Version | Previous Version | Text Only | Print | Product List | Glossary On
Versions: 1 2 3 4 5 6 7 8 9 10 11 12 13 14 15 16 17 18 19 20 21 22 23 24 25 26 27 28 29
000
FTUS43 KIND 041700
TAFIND
TAF
KIND 041722Z 0418/0524 32012KT 6SM BR BKN015 OVC025
     FM042000 33012KT 6SM -SN BKN035
     FM050100 34010KT P6SM OVC100
     FM050900 32010KT P6SM SCT250=

USA.gov is the U.S. government's official web portal to all federal, state and local government web resources and services.